createdAt,value
2018-09-30T00:02:56.661Z,9.12
2018-09-30T00:07:00.159Z,9.08
2018-09-30T00:11:03.607Z,9.07
2018-09-30T00:15:07.069Z,9.04
2018-09-30T00:19:10.541Z,9.01
2018-09-30T00:23:14.007Z,9.00
2018-09-30T00:27:18.490Z,8.92
2018-09-30T00:31:21.967Z,8.86
2018-09-30T00:35:25.472Z,8.81
2018-09-30T00:39:28.998Z,8.77
2018-09-30T00:43:32.467Z,8.76
2018-09-30T00:47:35.968Z,8.75
2018-09-30T00:51:39.519Z,8.75
2018-09-30T00:55:43.013Z,8.74
2018-09-30T00:59:46.529Z,8.75
2018-09-30T01:03:49.988Z,8.76
2018-09-30T01:07:54.279Z,8.72
2018-09-30T01:11:57.770Z,8.71
2018-09-30T01:16:01.191Z,8.69
2018-09-30T01:20:04.749Z,8.68
2018-09-30T01:24:08.572Z,8.64
2018-09-30T01:28:12.081Z,8.58
2018-09-30T01:32:15.607Z,8.54
2018-09-30T01:36:19.193Z,8.50
2018-09-30T01:40:22.691Z,8.45
2018-09-30T01:44:26.247Z,8.41
2018-09-30T01:48:30.095Z,8.39
2018-09-30T01:52:47.620Z,8.38
2018-09-30T01:56:51.107Z,8.35
2018-09-30T02:00:54.658Z,8.34
2018-09-30T02:04:58.146Z,8.35
2018-09-30T02:09:01.895Z,8.33
2018-09-30T02:13:05.662Z,8.28
2018-09-30T02:17:09.247Z,8.25
2018-09-30T02:21:13.132Z,8.22
2018-09-30T02:25:16.616Z,8.19
2018-09-30T02:29:20.079Z,8.11
2018-09-30T02:33:23.511Z,8.08
2018-09-30T02:37:27.044Z,8.03
2018-09-30T02:41:30.913Z,7.99
2018-09-30T02:45:34.457Z,7.97
2018-09-30T02:49:38.163Z,7.92
2018-09-30T02:53:41.710Z,7.91
2018-09-30T02:57:45.515Z,7.91
2018-09-30T03:01:49.159Z,7.87
2018-09-30T03:05:52.611Z,7.81
2018-09-30T03:09:56.095Z,7.81
2018-09-30T03:13:59.737Z,7.79
2018-09-30T03:18:03.609Z,7.83
2018-09-30T03:22:07.184Z,7.84
2018-09-30T03:26:10.779Z,7.81
2018-09-30T03:30:14.359Z,7.78
2018-09-30T03:34:18.151Z,7.73
2018-09-30T04:43:09.403Z,6.77
2018-09-30T05:42:46.938Z,6.65
2018-09-30T08:38:09.970Z,12.65
2018-09-30T08:46:51.884Z,12.95
2018-09-30T08:50:55.662Z,13.01
2018-09-30T08:54:59.573Z,13.13
2018-09-30T08:59:03.712Z,13.28
2018-09-30T09:03:07.638Z,13.32
2018-09-30T09:11:50.041Z,13.61
2018-09-30T09:15:53.812Z,13.73
2018-09-30T09:19:57.948Z,13.88
2018-09-30T09:24:24.479Z,14.07
2018-09-30T09:33:15.992Z,14.40
2018-09-30T09:37:19.711Z,14.43
2018-09-30T09:41:24.116Z,14.51
2018-09-30T09:59:10.949Z,14.93
2018-09-30T10:12:31.108Z,15.15
2018-09-30T16:17:40.133Z,16.16
2018-09-30T16:44:34.061Z,15.75
2018-09-30T16:48:38.384Z,15.68
2018-09-30T16:57:22.272Z,15.47
2018-09-30T17:01:27.516Z,15.40
2018-09-30T17:10:10.300Z,15.32
2018-09-30T17:18:53.761Z,15.09
2018-09-30T17:22:57.438Z,15.04
2018-09-30T17:27:02.821Z,14.99
2018-09-30T17:31:06.802Z,14.90
2018-09-30T17:35:11.024Z,14.84
2018-09-30T17:48:30.000Z,14.65
2018-09-30T17:52:34.247Z,14.61
2018-09-30T17:56:52.049Z,14.53
2018-09-30T18:00:59.183Z,14.47
2018-09-30T18:05:05.662Z,14.42
2018-09-30T18:13:33.971Z,14.23
2018-09-30T18:17:42.727Z,14.17
2018-09-30T18:21:46.925Z,14.10
2018-09-30T18:25:51.658Z,14.05
2018-09-30T18:30:01.809Z,14.03
2018-09-30T18:34:06.355Z,13.99
2018-09-30T18:38:12.505Z,13.94
2018-09-30T18:42:17.552Z,13.89
2018-09-30T18:46:21.863Z,13.82
2018-09-30T18:50:26.080Z,13.81
2018-09-30T18:54:30.990Z,13.75
2018-09-30T18:58:35.235Z,13.71
2018-09-30T19:02:39.886Z,13.69
2018-09-30T19:06:52.352Z,13.65
2018-09-30T19:10:56.480Z,13.60
2018-09-30T19:15:02.132Z,13.54
2018-09-30T19:19:07.639Z,13.52
2018-09-30T19:23:11.753Z,13.48
2018-09-30T19:27:17.302Z,13.43
2018-09-30T19:31:21.675Z,13.39
2018-09-30T19:35:25.937Z,13.33
2018-09-30T19:39:32.788Z,13.31
2018-09-30T19:43:39.240Z,13.29
2018-09-30T19:47:47.037Z,13.25
2018-09-30T19:51:51.206Z,13.23
2018-09-30T19:55:55.497Z,13.18
2018-09-30T19:59:59.488Z,13.15
2018-09-30T20:04:03.459Z,13.11
2018-09-30T20:08:08.013Z,13.09
2018-09-30T20:12:13.542Z,13.05
2018-09-30T20:16:17.782Z,13.02
2018-09-30T20:20:22.069Z,12.98
2018-09-30T20:24:26.006Z,12.97
2018-09-30T20:28:30.595Z,12.96
2018-09-30T20:32:34.585Z,12.89
2018-09-30T20:36:38.679Z,12.83
2018-09-30T20:40:43.114Z,12.82
2018-09-30T20:44:47.192Z,12.81
2018-09-30T20:48:51.213Z,12.80
2018-09-30T20:52:55.504Z,12.81
2018-09-30T20:56:59.569Z,12.80
2018-09-30T21:01:03.696Z,12.75
2018-09-30T21:05:29.243Z,12.70
2018-09-30T21:09:33.127Z,12.67
2018-09-30T21:13:37.884Z,12.65
2018-09-30T21:17:41.769Z,12.59
2018-09-30T21:21:46.420Z,12.54
2018-09-30T21:25:50.325Z,12.47
2018-09-30T21:29:54.348Z,12.43
2018-09-30T21:33:58.165Z,12.39
2018-09-30T21:38:02.136Z,12.38
2018-09-30T21:42:06.015Z,12.36
2018-09-30T21:46:10.004Z,12.33
2018-09-30T21:50:13.894Z,12.27
2018-09-30T21:54:17.817Z,12.24
2018-09-30T21:58:21.619Z,12.20
2018-09-30T22:02:25.525Z,12.18
2018-09-30T22:06:29.952Z,12.14
2018-09-30T22:10:34.690Z,12.08
2018-09-30T22:14:39.229Z,12.05
2018-09-30T22:18:42.958Z,12.02
2018-09-30T22:22:46.930Z,11.97
2018-09-30T22:26:51.532Z,11.90
2018-09-30T22:30:55.376Z,11.86
2018-09-30T22:34:59.426Z,11.85
2018-09-30T22:39:03.267Z,11.84
2018-09-30T22:43:08.197Z,11.79
2018-09-30T22:47:12.302Z,11.74
2018-09-30T22:51:16.190Z,11.72
2018-09-30T22:55:19.980Z,11.67
2018-09-30T22:59:23.986Z,11.65
2018-09-30T23:03:28.479Z,11.59
2018-09-30T23:07:32.308Z,11.51
2018-09-30T23:11:36.484Z,11.46
2018-09-30T23:15:40.600Z,11.42
2018-09-30T23:19:44.644Z,11.39
2018-09-30T23:23:48.418Z,11.36
2018-09-30T23:27:52.474Z,11.28
2018-09-30T23:31:56.219Z,11.23
2018-09-30T23:35:59.608Z,11.22
2018-09-30T23:40:03.143Z,11.19
2018-09-30T23:44:06.532Z,11.18
2018-09-30T23:48:09.912Z,11.19
2018-09-30T23:52:13.291Z,11.19
2018-09-30T23:56:16.751Z,11.18
